createdAt,value
2022-11-24T12:12:56.854Z,98959.38
2022-11-24T12:16:07.484Z,98959.19
2022-11-24T12:19:17.419Z,98954.81
2022-11-24T12:22:25.330Z,98956.53
2022-11-24T12:25:30.639Z,98952.53
2022-11-24T12:28:47.784Z,98944.22
2022-11-24T12:31:58.130Z,98939.31
2022-11-24T12:35:04.818Z,98943.38
2022-11-24T12:38:16.125Z,98941.09
2022-11-24T12:41:41.165Z,98938.00
2022-11-24T12:44:58.309Z,98928.63
2022-11-24T12:48:11.167Z,98930.97
2022-11-24T12:51:18.316Z,98926.06
2022-11-24T12:54:23.018Z,98941.78
2022-11-24T12:57:29.658Z,98940.09
2022-11-24T13:00:38.119Z,98939.47
2022-11-24T13:03:46.579Z,98930.81
2022-11-24T13:06:53.048Z,98929.94
2022-11-24T13:10:34.921Z,98938.25
2022-11-24T13:13:57.270Z,98935.84
2022-11-24T13:20:26.649Z,98934.63
2022-11-24T13:23:30.249Z,98937.38
2022-11-24T13:26:44.557Z,98946.06
2022-11-24T13:29:47.751Z,98946.28
2022-11-24T13:33:01.374Z,98943.78
2022-11-24T13:36:31.220Z,98951.81
2022-11-24T13:39:50.735Z,98957.31
2022-11-24T13:43:08.507Z,98946.13
2022-11-24T13:46:11.550Z,98952.69
2022-11-24T13:49:21.820Z,98957.91
2022-11-24T13:52:43.005Z,98951.97
2022-11-24T13:55:54.977Z,98942.91
2022-11-24T13:58:58.976Z,98945.06
2022-11-24T14:02:01.960Z,98947.47
2022-11-24T14:05:06.543Z,98940.94
2022-11-24T14:08:17.925Z,98935.78
2022-11-24T14:11:21.035Z,98938.59
2022-11-24T14:14:24.443Z,98932.94
2022-11-24T14:17:28.712Z,98934.53
2022-11-24T14:20:33.472Z,98935.38
2022-11-24T14:23:42.390Z,98936.13
2022-11-24T14:26:47.185Z,98934.78
2022-11-24T14:29:54.438Z,98934.75
2022-11-24T14:32:57.906Z,98919.94
2022-11-24T14:36:03.757Z,98915.84
2022-11-24T14:39:07.930Z,98921.06
2022-11-24T14:42:19.448Z,98921.34
2022-11-24T14:45:29.646Z,98930.00
2022-11-24T14:48:36.527Z,98925.69
2022-11-24T14:51:46.908Z,98922.91
2022-11-24T14:54:53.501Z,98918.50
2022-11-24T14:57:56.362Z,98917.91
2022-11-24T15:01:18.327Z,98929.41
2022-11-24T15:04:46.728Z,98936.53
2022-11-24T15:07:49.307Z,98936.41
2022-11-24T15:10:56.598Z,98932.75
2022-11-24T15:14:02.037Z,98936.75
2022-11-24T15:17:06.190Z,98942.47
2022-11-24T15:20:12.512Z,98948.31
2022-11-24T15:23:24.841Z,98954.97
2022-11-24T15:26:39.984Z,98963.88
2022-11-24T15:29:47.107Z,98961.06
2022-11-24T15:32:51.611Z,98963.72
2022-11-24T15:35:54.877Z,98964.13
2022-11-24T15:39:02.659Z,98963.22
2022-11-24T15:42:06.932Z,98968.06
2022-11-24T15:45:13.980Z,98958.25
2022-11-24T15:48:18.446Z,98962.63
2022-11-24T15:51:23.688Z,98969.13
2022-11-24T15:54:32.972Z,98964.34
2022-11-24T15:57:38.300Z,98970.13
2022-11-24T16:00:43.952Z,98977.06
2022-11-24T16:03:49.477Z,98983.72
2022-11-24T16:06:59.575Z,98982.00
2022-11-24T16:10:08.326Z,98980.41
2022-11-24T16:13:12.734Z,98976.75
2022-11-24T16:16:16.939Z,98963.56
2022-11-24T16:19:21.002Z,98975.41
2022-11-24T16:22:25.172Z,98968.03
2022-11-24T16:25:33.727Z,98963.03
2022-11-24T16:28:39.066Z,98970.06
2022-11-24T16:31:43.793Z,98965.69
2022-11-24T16:34:56.319Z,98974.94
2022-11-24T16:38:00.900Z,98971.50
2022-11-24T16:41:08.632Z,98981.16
2022-11-24T16:44:11.977Z,98976.44
2022-11-24T16:47:17.100Z,98973.25
2022-11-24T16:50:20.706Z,98963.38
2022-11-24T16:53:24.976Z,98966.19
2022-11-24T16:56:30.718Z,98966.50
2022-11-24T16:59:38.756Z,98969.50
2022-11-24T17:02:42.653Z,98962.91
2022-11-24T17:05:46.871Z,98960.72
2022-11-24T17:08:55.726Z,98966.09
2022-11-24T17:12:01.666Z,98970.53
2022-11-24T17:15:31.151Z,98960.41
2022-11-24T17:18:36.737Z,98954.19
2022-11-24T17:21:42.196Z,98966.53
2022-11-24T17:24:50.929Z,98961.31
2022-11-24T17:27:56.506Z,98965.25
2022-11-24T17:31:01.835Z,98958.44
2022-11-24T17:34:08.526Z,98969.28
2022-11-24T17:37:13.283Z,98970.91
2022-11-24T17:40:29.034Z,98965.28
2022-11-24T17:43:41.812Z,98974.75
2022-11-24T17:46:47.896Z,98974.44
2022-11-24T17:49:52.805Z,98986.81
2022-11-24T17:53:04.116Z,98989.25
2022-11-24T17:56:10.017Z,98995.44
2022-11-24T17:59:18.052Z,98990.31
2022-11-24T18:02:26.507Z,98992.97
2022-11-24T18:05:32.209Z,98988.38
2022-11-24T18:08:42.957Z,98996.91
2022-11-24T18:11:48.427Z,98986.38
2022-11-24T18:14:54.392Z,98978.38
2022-11-24T18:17:59.471Z,98981.03
2022-11-24T18:21:05.317Z,98986.50
2022-11-24T18:24:13.099Z,98984.06
2022-11-24T18:27:17.970Z,98979.19
2022-11-24T18:30:27.220Z,98991.72
2022-11-24T18:33:34.835Z,99001.81
2022-11-24T18:36:41.887Z,99001.13
2022-11-24T18:39:47.213Z,98998.72
2022-11-24T18:42:59.196Z,98987.38
2022-11-24T18:46:11.987Z,98985.50
2022-11-24T18:49:15.577Z,98995.94
2022-11-24T18:52:22.832Z,98993.19
2022-11-24T18:55:26.945Z,98995.88
2022-11-24T18:58:31.571Z,99002.84
2022-11-24T19:01:39.737Z,98999.34
2022-11-24T19:04:46.132Z,99000.50
2022-11-24T19:07:49.339Z,98999.28
2022-11-24T19:10:55.088Z,99007.66
2022-11-24T19:14:00.812Z,99004.03
2022-11-24T19:17:09.308Z,99004.47
2022-11-24T19:20:14.249Z,98997.66
2022-11-24T19:23:18.654Z,98994.69
2022-11-24T19:26:21.528Z,98996.53
2022-11-24T19:29:25.563Z,98995.50
2022-11-24T19:32:32.899Z,99002.81
2022-11-24T19:35:38.432Z,98983.44
2022-11-24T19:38:44.347Z,98985.44
2022-11-24T19:41:50.624Z,98987.06
2022-11-24T19:44:56.875Z,98993.88
2022-11-24T19:48:02.247Z,98994.59
2022-11-24T19:51:08.613Z,98990.19
2022-11-24T19:54:16.112Z,98992.88
2022-11-24T19:57:22.270Z,99001.88
2022-11-24T20:00:30.703Z,99006.38
2022-11-24T20:03:37.757Z,99004.78
2022-11-24T20:06:42.510Z,99005.06
2022-11-24T20:09:47.335Z,99004.09
2022-11-24T20:12:55.106Z,99000.97
2022-11-24T20:16:06.195Z,98996.38
2022-11-24T20:19:15.760Z,99002.97
2022-11-24T20:22:18.923Z,98996.56
2022-11-24T20:25:22.929Z,98998.13
2022-11-24T20:28:25.802Z,98998.91
2022-11-24T20:31:32.673Z,98998.19
2022-11-24T20:34:37.813Z,98994.91
2022-11-24T20:37:43.147Z,98997.00
2022-11-24T20:40:47.468Z,99002.44
2022-11-24T20:43:50.993Z,98989.50
2022-11-24T20:47:00.341Z,98997.69
2022-11-24T20:50:11.605Z,98997.16
2022-11-24T20:53:17.988Z,99008.66
2022-11-24T20:56:21.828Z,99002.34
2022-11-24T20:59:28.424Z,98998.53
2022-11-24T21:02:31.952Z,98987.22
2022-11-24T21:05:39.570Z,99006.72
2022-11-24T21:08:43.325Z,98995.31
2022-11-24T21:11:46.262Z,98996.19
2022-11-24T21:14:49.237Z,98995.66
2022-11-24T21:17:52.082Z,99007.19
2022-11-24T21:20:56.274Z,99003.78
2022-11-24T21:23:59.353Z,98998.41
2022-11-24T21:27:02.161Z,98996.19
2022-11-24T21:30:05.883Z,98992.44
2022-11-24T21:33:09.176Z,98986.25
2022-11-24T21:36:14.810Z,98985.22
2022-11-24T21:39:18.598Z,98991.97
2022-11-24T21:42:22.668Z,98996.31
2022-11-24T21:45:25.492Z,98997.16
2022-11-24T21:48:29.566Z,98983.19
2022-11-24T21:51:33.716Z,98980.22
2022-11-24T21:54:36.865Z,98985.00
2022-11-24T21:57:39.751Z,98978.88
2022-11-24T22:00:42.545Z,98984.91
2022-11-24T22:03:45.852Z,98977.03
2022-11-24T22:06:50.085Z,98973.88
2022-11-24T22:09:52.786Z,98980.06
2022-11-24T22:12:55.539Z,98968.59
2022-11-24T22:16:05.184Z,98970.44
2022-11-24T22:19:08.947Z,98968.97
2022-11-24T22:22:13.150Z,98968.94
2022-11-24T22:25:15.857Z,98983.66
2022-11-24T22:28:18.646Z,98998.53
2022-11-24T22:31:22.563Z,98993.81
2022-11-24T22:34:25.346Z,98996.50
2022-11-24T22:37:29.519Z,98994.84
2022-11-24T22:40:32.225Z,98994.81
2022-11-24T22:43:35.639Z,98988.66
2022-11-24T22:46:38.501Z,98995.34
2022-11-24T22:49:41.215Z,98997.97
2022-11-24T22:52:45.411Z,99005.34
2022-11-24T22:55:48.170Z,98997.84
2022-11-24T22:58:51.169Z,99007.53
2022-11-24T23:01:53.924Z,99008.03
2022-11-24T23:04:56.741Z,99010.69
2022-11-24T23:08:00.840Z,99001.09
2022-11-24T23:11:04.240Z,99012.75
2022-11-24T23:14:07.767Z,99009.56
2022-11-24T23:17:10.534Z,99004.44
2022-11-24T23:20:14.133Z,98996.41
2022-11-24T23:23:18.271Z,99001.09
2022-11-24T23:26:21.811Z,99007.09
2022-11-24T23:29:24.704Z,99011.25
2022-11-24T23:32:27.396Z,99016.28
2022-11-24T23:35:30.207Z,99022.28
2022-11-24T23:38:34.072Z,99017.63
2022-11-24T23:41:38.247Z,99021.44
2022-11-24T23:44:40.995Z,99027.44
2022-11-24T23:47:43.736Z,99010.78
2022-11-24T23:50:46.506Z,99009.28
2022-11-24T23:53:49.452Z,98999.09
2022-11-24T23:56:53.597Z,98998.09
2022-11-24T23:59:56.380Z,98985.38
